createdAt,value
2023-01-28T00:03:33.156Z,9.88
2023-01-28T00:07:34.935Z,8.25
2023-01-28T00:11:36.856Z,10.02
2023-01-28T00:15:38.582Z,10.95
2023-01-28T00:19:40.400Z,11.60
2023-01-28T00:23:47.370Z,10.60
2023-01-28T00:27:50.133Z,10.98
2023-01-28T00:31:51.940Z,11.73
2023-01-28T00:36:01.406Z,8.63
2023-01-28T00:40:03.202Z,9.60
2023-01-28T00:44:05.011Z,9.48
2023-01-28T00:48:07.052Z,13.20
2023-01-28T00:52:08.800Z,13.25
2023-01-28T00:56:18.584Z,10.77
2023-01-28T01:00:27.322Z,10.98
2023-01-28T01:04:35.487Z,14.02
2023-01-28T01:08:42.929Z,10.65
2023-01-28T01:12:47.467Z,11.02
2023-01-28T01:16:49.283Z,9.57
2023-01-28T01:20:59.072Z,9.73
2023-01-28T01:25:01.421Z,9.38
2023-01-28T01:29:03.293Z,8.65
2023-01-28T01:33:05.028Z,8.52
2023-01-28T01:37:08.698Z,6.38
2023-01-28T01:41:23.247Z,8.63
2023-01-28T01:45:26.420Z,9.48
2023-01-28T01:49:28.860Z,8.95
2023-01-28T01:53:31.719Z,8.13
2023-01-28T01:57:36.197Z,9.43
2023-01-28T02:01:38.059Z,8.35
2023-01-28T02:05:40.263Z,8.85
2023-01-28T02:09:44.078Z,5.97
2023-01-28T02:13:50.648Z,6.68
2023-01-28T02:17:52.779Z,6.07
2023-01-28T02:22:26.765Z,8.13
2023-01-28T02:27:04.207Z,7.18
2023-01-28T02:31:27.442Z,6.28
2023-01-28T02:35:35.396Z,5.72
2023-01-28T02:39:48.261Z,6.40
2023-01-28T02:43:50.794Z,5.38
2023-01-28T02:47:59.236Z,6.03
2023-01-28T02:52:45.724Z,6.95
2023-01-28T02:56:56.953Z,6.68
2023-01-28T03:01:43.026Z,5.13
2023-01-28T03:06:09.081Z,4.80
2023-01-28T03:10:17.149Z,4.95
2023-01-28T03:14:39.308Z,4.93
2023-01-28T03:19:10.959Z,7.47
2023-01-28T03:23:38.861Z,4.53
2023-01-28T03:28:09.195Z,4.75
2023-01-28T03:32:30.660Z,7.00
2023-01-28T03:36:51.902Z,7.40
2023-01-28T03:41:12.560Z,5.95
2023-01-28T03:45:16.033Z,5.65
2023-01-28T03:49:21.220Z,6.10
2023-01-28T03:53:23.515Z,4.53
2023-01-28T03:57:28.099Z,4.03
2023-01-28T04:01:30.103Z,3.10
2023-01-28T04:05:32.015Z,4.65
2023-01-28T04:09:36.121Z,4.07
2023-01-28T04:14:00.554Z,4.75
2023-01-28T04:18:10.323Z,4.45
2023-01-28T04:22:12.606Z,5.70
2023-01-28T04:26:17.175Z,4.35
2023-01-28T04:30:19.503Z,4.82
2023-01-28T04:34:39.304Z,4.25
2023-01-28T04:39:00.918Z,7.18
2023-01-28T04:43:13.562Z,5.18
2023-01-28T04:47:26.744Z,3.35
2023-01-28T04:51:44.445Z,4.78
2023-01-28T04:55:58.867Z,3.20
2023-01-28T05:00:05.636Z,6.45
2023-01-28T05:04:07.981Z,5.55
2023-01-28T05:08:13.396Z,6.10
2023-01-28T05:12:15.578Z,5.07
2023-01-28T05:16:18.442Z,6.22
2023-01-28T05:20:20.310Z,4.72
2023-01-28T05:24:24.474Z,5.55
2023-01-28T05:28:26.283Z,5.05
2023-01-28T05:32:28.130Z,4.97
2023-01-28T05:36:30.100Z,5.05
2023-01-28T05:40:35.576Z,4.95
2023-01-28T05:44:38.131Z,5.18
2023-01-28T05:49:13.779Z,6.13
2023-01-28T05:53:34.340Z,7.97
2023-01-28T05:57:36.752Z,4.78
2023-01-28T06:01:39.783Z,4.55
2023-01-28T06:05:41.612Z,4.95
2023-01-28T06:09:43.487Z,9.60
2023-01-28T06:13:45.782Z,8.30
2023-01-28T06:18:07.875Z,6.40
2023-01-28T06:22:10.518Z,6.32
2023-01-28T06:26:12.222Z,5.35
2023-01-28T06:30:17.241Z,5.53
2023-01-28T06:34:19.436Z,5.97
2023-01-28T06:38:21.191Z,5.75
2023-01-28T06:42:23.119Z,6.57
2023-01-28T06:46:25.074Z,6.82
2023-01-28T06:50:26.796Z,6.03
2023-01-28T06:54:28.495Z,7.72
2023-01-28T06:58:30.375Z,5.72
2023-01-28T07:02:32.047Z,7.00
2023-01-28T07:06:33.850Z,7.18
2023-01-28T07:10:35.764Z,5.50
2023-01-28T07:14:37.617Z,6.55
2023-01-28T07:18:39.462Z,5.28
2023-01-28T07:22:42.931Z,7.47
2023-01-28T07:26:44.706Z,8.85
2023-01-28T07:30:46.442Z,9.02
2023-01-28T07:34:48.179Z,7.65
2023-01-28T07:38:49.858Z,9.65
2023-01-28T07:42:52.710Z,6.72
2023-01-28T07:46:57.061Z,10.68
2023-01-28T07:51:00.125Z,8.15
2023-01-28T07:55:01.858Z,6.57
2023-01-28T07:59:03.820Z,5.70
2023-01-28T08:03:18.018Z,6.68
2023-01-28T08:07:19.743Z,10.60
2023-01-28T08:11:21.980Z,8.68
2023-01-28T08:15:23.880Z,7.32
2023-01-28T08:19:25.685Z,10.15
2023-01-28T08:23:27.822Z,6.68
2023-01-28T08:27:29.629Z,6.22
2023-01-28T08:31:31.544Z,6.68
2023-01-28T08:35:33.902Z,8.48
2023-01-28T08:39:35.919Z,5.88
2023-01-28T08:43:37.719Z,7.78
2023-01-28T08:47:48.562Z,8.25
2023-01-28T08:51:50.426Z,10.38
2023-01-28T08:55:54.499Z,7.70
2023-01-28T08:59:56.205Z,8.02
2023-01-28T09:03:57.962Z,12.60
2023-01-28T09:08:08.531Z,10.77
2023-01-28T09:12:11.249Z,11.68
2023-01-28T09:16:13.253Z,10.15
2023-01-28T09:20:15.438Z,7.40
2023-01-28T09:24:17.342Z,9.77
2023-01-28T09:28:19.164Z,8.70
2023-01-28T09:32:21.345Z,4.85
2023-01-28T09:36:23.585Z,8.80
2023-01-28T09:40:42.258Z,6.45
2023-01-28T09:44:55.654Z,6.53
2023-01-28T09:49:01.650Z,8.20
2023-01-28T09:53:19.126Z,5.88
2023-01-28T09:57:24.933Z,5.82
2023-01-28T10:01:38.957Z,8.88
2023-01-28T10:05:56.250Z,8.32
2023-01-28T10:10:03.756Z,7.78
2023-01-28T10:14:38.179Z,6.70
2023-01-28T10:18:46.258Z,6.00
2023-01-28T10:23:01.058Z,7.75
2023-01-28T10:27:09.902Z,11.07
2023-01-28T10:31:14.387Z,8.23
2023-01-28T10:35:16.306Z,8.88
2023-01-28T10:39:21.701Z,9.23
2023-01-28T10:43:26.838Z,10.65
2023-01-28T10:47:45.817Z,8.75
2023-01-28T10:51:47.600Z,9.75
2023-01-28T10:55:58.879Z,12.15
2023-01-28T11:00:24.499Z,5.47
2023-01-28T11:04:35.632Z,8.65
2023-01-28T11:08:44.733Z,7.38
2023-01-28T11:12:55.686Z,7.68
2023-01-28T11:16:58.346Z,10.65
2023-01-28T11:21:27.891Z,6.90
2023-01-28T11:25:35.277Z,8.43
2023-01-28T11:29:42.233Z,6.10
2023-01-28T11:33:53.119Z,8.32
2023-01-28T11:37:54.975Z,6.75
2023-01-28T11:42:19.454Z,6.38
2023-01-28T11:46:21.249Z,7.28
2023-01-28T11:50:39.814Z,7.35
2023-01-28T11:55:20.510Z,6.55
2023-01-28T11:59:28.443Z,6.70
2023-01-28T12:03:39.127Z,7.13
2023-01-28T12:07:59.737Z,7.70
2023-01-28T12:12:15.840Z,7.57
2023-01-28T12:17:05.798Z,6.00
2023-01-28T12:21:20.285Z,7.38
2023-01-28T12:26:20.546Z,6.47
2023-01-28T12:34:49.169Z,5.90
2023-01-28T12:38:50.819Z,7.80
2023-01-28T12:42:59.586Z,5.53
2023-01-28T12:47:08.460Z,6.18
2023-01-28T12:51:16.188Z,5.95
2023-01-28T12:55:30.031Z,5.88
2023-01-28T12:59:45.513Z,7.15
2023-01-28T13:04:08.516Z,6.03
2023-01-28T13:08:23.210Z,4.22
2023-01-28T13:12:25.845Z,6.13
2023-01-28T13:16:36.868Z,7.55
2023-01-28T13:20:50.856Z,7.28
2023-01-28T13:24:52.683Z,4.95
2023-01-28T13:29:26.820Z,5.22
2023-01-28T13:33:34.857Z,9.23
2023-01-28T13:37:40.105Z,5.88
2023-01-28T13:41:49.661Z,4.97
2023-01-28T13:46:08.177Z,6.72
2023-01-28T13:50:18.237Z,6.43
2023-01-28T13:54:23.729Z,4.55
2023-01-28T13:58:25.386Z,9.25
2023-01-28T14:02:41.994Z,4.78
2023-01-28T14:07:14.900Z,4.85
2023-01-28T14:11:53.508Z,6.13
2023-01-28T14:16:19.644Z,5.13
2023-01-28T14:20:27.594Z,3.50
2023-01-28T14:24:29.441Z,3.92
2023-01-28T14:29:19.831Z,4.63
2023-01-28T14:33:22.971Z,4.18
2023-01-28T14:37:29.143Z,5.78
2023-01-28T14:41:31.778Z,4.43
2023-01-28T14:45:45.560Z,3.42
2023-01-28T14:49:50.004Z,4.90
2023-01-28T14:53:59.246Z,8.15
2023-01-28T14:58:20.303Z,5.93
2023-01-28T15:02:24.723Z,9.88
2023-01-28T15:06:36.034Z,6.80
2023-01-28T15:10:39.331Z,4.93
2023-01-28T15:14:41.986Z,5.55
2023-01-28T15:18:45.183Z,7.07
2023-01-28T15:22:47.561Z,4.53
2023-01-28T15:26:49.559Z,7.47
2023-01-28T15:30:51.392Z,6.28
2023-01-28T15:34:53.622Z,9.85
2023-01-28T15:38:56.648Z,5.15
2023-01-28T15:42:58.980Z,5.65
2023-01-28T15:47:02.513Z,7.55
2023-01-28T15:51:18.448Z,7.10
2023-01-28T15:55:39.424Z,5.55
2023-01-28T15:59:41.466Z,7.68
2023-01-28T16:03:46.310Z,8.48
2023-01-28T16:07:48.082Z,5.60
2023-01-28T16:11:49.903Z,11.32
2023-01-28T16:15:53.787Z,5.93
2023-01-28T16:20:04.886Z,5.32
2023-01-28T16:24:22.424Z,7.05
2023-01-28T16:28:24.274Z,6.03
2023-01-28T16:32:33.032Z,8.85
2023-01-28T16:36:35.201Z,5.63
2023-01-28T16:40:38.720Z,5.60
2023-01-28T16:44:40.479Z,5.68
2023-01-28T16:48:42.339Z,6.85
2023-01-28T16:52:46.262Z,5.68
2023-01-28T16:56:48.459Z,5.07
2023-01-28T17:00:50.312Z,7.85
2023-01-28T17:04:52.056Z,7.13
2023-01-28T17:08:53.902Z,9.82
2023-01-28T17:12:55.655Z,4.88
2023-01-28T17:16:57.476Z,7.13
2023-01-28T17:21:04.256Z,5.43
2023-01-28T17:25:06.371Z,3.60
2023-01-28T17:29:08.365Z,3.88
2023-01-28T17:33:10.264Z,9.40
2023-01-28T17:37:11.945Z,5.28
2023-01-28T17:41:14.291Z,4.80
2023-01-28T17:45:17.300Z,4.60
2023-01-28T17:49:19.487Z,3.53
2023-01-28T17:53:21.184Z,4.30
2023-01-28T17:57:23.374Z,4.43
2023-01-28T18:01:26.807Z,5.57
2023-01-28T18:05:28.565Z,3.15
2023-01-28T18:09:30.316Z,3.63
2023-01-28T18:13:32.383Z,4.53
2023-01-28T18:17:34.167Z,2.55
2023-01-28T18:21:56.951Z,3.90
2023-01-28T18:26:01.018Z,5.95
2023-01-28T18:30:03.137Z,4.57
2023-01-28T18:34:04.848Z,3.20
2023-01-28T18:38:06.585Z,6.43
2023-01-28T18:42:09.033Z,3.35
2023-01-28T18:46:13.218Z,6.05
2023-01-28T18:50:15.361Z,4.45
2023-01-28T18:54:17.215Z,7.85
2023-01-28T18:58:19.393Z,6.18
2023-01-28T19:02:21.244Z,3.88
2023-01-28T19:06:24.005Z,5.30
2023-01-28T19:10:25.923Z,7.63
2023-01-28T19:14:27.711Z,6.00
2023-01-28T19:18:29.665Z,6.55
2023-01-28T19:22:31.490Z,6.95
2023-01-28T19:26:33.274Z,7.55
2023-01-28T19:30:36.329Z,8.45
2023-01-28T19:34:38.030Z,9.57
2023-01-28T19:38:40.501Z,8.85
2023-01-28T19:42:42.292Z,8.07
2023-01-28T19:46:44.205Z,7.68
2023-01-28T19:50:46.051Z,7.85
2023-01-28T19:54:48.403Z,6.45
2023-01-28T19:58:50.333Z,9.18
2023-01-28T20:02:52.095Z,8.95
2023-01-28T20:06:53.845Z,8.13
2023-01-28T20:11:03.138Z,10.38
2023-01-28T20:15:05.265Z,15.88
2023-01-28T20:19:08.965Z,17.23
2023-01-28T20:23:10.655Z,15.38
2023-01-28T20:27:12.364Z,19.23
2023-01-28T20:31:14.546Z,9.82
2023-01-28T20:35:16.672Z,10.88
2023-01-28T20:39:18.915Z,10.13
2023-01-28T20:43:20.680Z,10.55
2023-01-28T20:47:22.389Z,9.52
2023-01-28T20:51:26.828Z,7.40
2023-01-28T20:55:28.866Z,10.13
2023-01-28T20:59:32.582Z,9.18
2023-01-28T21:03:34.471Z,10.43
2023-01-28T21:07:36.258Z,9.48
2023-01-28T21:11:37.964Z,12.93
2023-01-28T21:15:39.889Z,11.82
2023-01-28T21:19:41.608Z,10.27
2023-01-28T21:23:43.404Z,17.88
2023-01-28T21:27:45.136Z,9.13
2023-01-28T21:31:47.220Z,14.15
2023-01-28T21:35:48.908Z,16.15
2023-01-28T21:39:50.685Z,13.05
2023-01-28T21:43:54.102Z,15.32
2023-01-28T21:47:57.407Z,12.05
2023-01-28T21:51:59.258Z,11.88
2023-01-28T21:56:01.011Z,13.73
2023-01-28T22:00:03.254Z,11.02
2023-01-28T22:04:14.145Z,9.57
2023-01-28T22:08:16.401Z,12.13
2023-01-28T22:12:18.405Z,12.45
2023-01-28T22:16:20.204Z,11.15
2023-01-28T22:20:22.068Z,12.02
2023-01-28T22:24:24.784Z,10.43
2023-01-28T22:28:27.764Z,11.85
2023-01-28T22:32:29.481Z,10.93
2023-01-28T22:36:33.091Z,9.70
2023-01-28T22:40:35.650Z,11.65
2023-01-28T22:44:37.453Z,11.75
2023-01-28T22:48:39.980Z,13.30
2023-01-28T22:52:41.957Z,14.30
2023-01-28T22:56:43.835Z,11.90
2023-01-28T23:00:45.594Z,20.95
2023-01-28T23:04:47.854Z,15.05
2023-01-28T23:08:49.867Z,17.92
2023-01-28T23:12:54.073Z,14.32
2023-01-28T23:17:14.455Z,15.88
2023-01-28T23:21:38.339Z,18.80
2023-01-28T23:25:40.237Z,14.65
2023-01-28T23:29:42.126Z,23.42
2023-01-28T23:33:43.857Z,17.13
2023-01-28T23:37:46.079Z,15.38
2023-01-28T23:41:47.743Z,13.13
2023-01-28T23:45:49.729Z,14.68
2023-01-28T23:49:51.495Z,14.65
2023-01-28T23:53:53.260Z,13.00
2023-01-28T23:57:55.285Z,13.05
